Wasilla Airport
PAWS : now visible

Aeroporto :











RITROVATECI SU...

 
LOGIN :

Iscrizione | Disclaimer

   EN    FR    IT 

 









Sommario :    VFR   VFR Marginale   IFR   IFR Intensivo   IFR Molto Intensivo
Visibilità : 
Base nubi : 
>= 8 km
>= 3000ft
5 / 8 km
1000 / 3000 ft
1500m / 5 km
500 / 1000 ft
800 / 1500m
200 / 500 ft
< 800m
< 200 ft
Simboli :   Temporali  Nebbia  Neve Forte  Precipitazioni Forti  Vento > 20 kt






- Altitudine del aeroporto : 354 ft
- Codice IATA : IYS


PAWS - Wasilla

ULTIMO METAR :
  • 011956Z AUTO 07006KT 10SM FEW070 14/04 A2962 RMK AO2 SLP032 T01440039

METARs OBSOLETI :
  • 011856Z AUTO 00000KT 10SM FEW075 13/04 A2962 RMK AO2 SLP034 T01330044
  • 011756Z AUTO 05007KT 10SM FEW090 12/04 A2962 RMK AO2 SLP034 T01170039 10117 20044 53000

TAF N/A
FIR PAZA / America del Nord



MetMap, La meteo Aeronautica in un colpo d'occhio ! - Copyright ORBIFLY Dicembre 2007 - Disclaimer

ORBIFLY MET'MAP TEAM :

Programmazione e sviluppo : Alexandra Zaïnal
Concezione : Baudouin d'Aumeries
Aiuto per la programmazione : Marc-Olivier Méhu
Supporto tecnico e logistico : Manuel Goepfert
Aiuto per la traduzione : Arnaldo La Scala

Contatto : metmap@orbifly.com




FONTI E CREDITI :

   NOAA       Earth
Advisory